Time;durP1;ratioP1;P1;durP2;ratioP2;P2;SDS_P1;SDS_P2;PMS_P1;PMS_P2;Temp;Humidity;BMP_temperature;BMP_pressure;BME280_temperature;BME280_humidity;BME280_pressure;Samples;Min_cycle;Max_cycle;Signal;HPM_P1;HPM_P2
2021/06/13 00:00:32;;;;;;;0.15;0.13;;;17.60;67.70;;;;;;5085758;28;20033;-75
2021/06/13 00:02:57;;;;;;;0.20;0.20;;;17.70;68.00;;;;;;5077874;28;20029;-76
2021/06/13 00:05:23;;;;;;;0.20;0.20;;;17.60;68.10;;;;;;5076624;28;20074;-76
2021/06/13 00:07:49;;;;;;;0.20;0.20;;;17.60;68.30;;;;;;5071967;28;20079;-76
2021/06/13 00:10:16;;;;;;;0.20;0.20;;;17.50;68.40;;;;;;5056342;28;20513;-76
2021/06/13 00:12:46;;;;;;;0.20;0.20;;;17.50;68.40;;;;;;5057237;28;20395;-76
2021/06/13 00:15:19;;;;;;;0.20;0.20;;;17.40;68.90;;;;;;5073172;28;20024;-76
2021/06/13 00:17:45;;;;;;;0.20;0.20;;;17.30;68.80;;;;;;5071817;28;20064;-76
2021/06/13 00:20:14;;;;;;;0.10;0.10;;;17.30;68.70;;;;;;5072814;28;20033;-76
2021/06/13 00:22:40;;;;;;;0.20;0.20;;;17.30;68.50;;;;;;5057272;28;20037;-75
2021/06/13 00:25:08;;;;;;;0.17;0.10;;;17.20;68.90;;;;;;5072775;28;20028;-76
2021/06/13 00:27:34;;;;;;;0.20;0.20;;;17.30;69.10;;;;;;5072597;28;20036;-75
2021/06/13 00:30:02;;;;;;;0.20;0.20;;;17.20;69.40;;;;;;5072753;28;20025;-76
2021/06/13 00:32:29;;;;;;;0.20;0.20;;;17.10;70.10;;;;;;5071449;28;20036;-76
2021/06/13 00:34:54;;;;;;;0.20;0.20;;;17.10;69.20;;;;;;5072531;28;20021;-76
2021/06/13 00:37:20;;;;;;;0.20;0.20;;;17.10;69.50;;;;;;5057156;28;20622;-76
2021/06/13 00:39:46;;;;;;;0.10;0.10;;;17.10;69.70;;;;;;5071217;28;20059;-75
2021/06/13 00:42:11;;;;;;;0.20;0.20;;;17.10;69.60;;;;;;5072607;28;20036;-76
2021/06/13 00:44:37;;;;;;;0.17;0.17;;;17.20;69.40;;;;;;5056876;28;20033;-75
2021/06/13 00:47:10;;;;;;;0.22;0.20;;;17.30;69.30;;;;;;5072379;28;20441;-76
2021/06/13 00:49:36;;;;;;;0.20;0.20;;;17.30;68.80;;;;;;5072534;28;20024;-76
2021/06/13 00:52:02;;;;;;;0.20;0.20;;;17.30;68.50;;;;;;5071165;28;20182;-76
2021/06/13 00:54:28;;;;;;;0.20;0.20;;;17.30;68.60;;;;;;5072193;28;20021;-76
2021/06/13 00:56:54;;;;;;;0.20;0.20;;;17.30;69.10;;;;;;5072407;28;20028;-76
2021/06/13 00:59:20;;;;;;;0.20;0.20;;;17.20;69.30;;;;;;5058251;28;20033;-76
2021/06/13 01:01:46;;;;;;;0.20;0.20;;;17.20;69.00;;;;;;5072259;28;20029;-76
2021/06/13 01:04:12;;;;;;;0.20;0.20;;;17.20;69.10;;;;;;5071936;28;20032;-76
2021/06/13 01:06:43;;;;;;;0.20;0.20;;;17.20;69.00;;;;;;5071891;28;20028;-75
2021/06/13 01:09:18;;;;;;;0.25;0.20;;;17.20;69.30;;;;;;5070835;28;20032;-76
2021/06/13 01:12:02;;;;;;;0.20;0.20;;;17.10;69.40;;;;;;5056583;28;20029;-76
2021/06/13 01:15:32;;;;;;;0.10;0.10;;;17.10;69.70;;;;;;5056579;28;20392;-76
2021/06/13 01:18:15;;;;;;;0.20;0.20;;;17.00;70.00;;;;;;5002351;28;20052;-75
2021/06/13 01:20:53;;;;;;;0.30;0.20;;;17.00;69.90;;;;;;5055276;28;20091;-76
2021/06/13 01:23:47;;;;;;;0.20;0.20;;;17.00;69.90;;;;;;5071541;28;20949;-76
2021/06/13 01:26:33;;;;;;;0.13;0.13;;;17.00;69.80;;;;;;5074694;28;20090;-76
2021/06/13 01:29:15;;;;;;;0.20;0.20;;;16.90;70.40;;;;;;5069999;28;20029;-76
2021/06/13 01:31:47;;;;;;;0.30;0.20;;;16.90;70.50;;;;;;5056140;28;20024;-75
2021/06/13 01:34:18;;;;;;;0.20;0.20;;;16.80;70.60;;;;;;5055828;28;20032;-76
2021/06/13 01:36:46;;;;;;;0.20;0.20;;;16.80;70.60;;;;;;5056001;28;20048;-76
2021/06/13 01:39:16;;;;;;;0.30;0.20;;;16.80;70.90;;;;;;5055929;28;20056;-76
2021/06/13 01:41:45;;;;;;;0.15;0.15;;;16.80;70.80;;;;;;5059029;28;20077;-76
2021/06/13 01:44:11;;;;;;;0.20;0.20;;;16.80;70.60;;;;;;5076274;28;20025;-76
2021/06/13 01:46:40;;;;;;;0.20;0.20;;;16.80;71.00;;;;;;5074598;28;20443;-76
2021/06/13 01:49:11;;;;;;;0.20;0.20;;;16.80;70.50;;;;;;5072983;28;20040;-76
2021/06/13 01:51:37;;;;;;;0.20;0.20;;;16.70;71.40;;;;;;5074351;28;20124;-76
2021/06/13 01:54:05;;;;;;;0.20;0.20;;;16.80;71.00;;;;;;5074313;28;20033;-76
2021/06/13 01:56:32;;;;;;;0.20;0.20;;;16.80;71.30;;;;;;5074295;28;20038;-76
2021/06/13 01:58:59;;;;;;;0.22;0.20;;;16.70;71.30;;;;;;5069505;28;20032;-76
2021/06/13 02:01:26;;;;;;;0.20;0.20;;;16.70;71.20;;;;;;5094572;28;20028;-76
2021/06/13 02:03:54;;;;;;;0.20;0.20;;;16.70;71.60;;;;;;5087477;28;20107;-76
2021/06/13 02:06:26;;;;;;;0.20;0.20;;;16.70;71.30;;;;;;5074441;28;20031;-75
2021/06/13 02:08:54;;;;;;;0.20;0.20;;;16.70;71.20;;;;;;5075564;28;20028;-76
2021/06/13 02:11:21;;;;;;;0.20;0.20;;;16.80;71.10;;;;;;5066162;28;20029;-76
2021/06/13 02:13:47;;;;;;;0.20;0.20;;;16.80;70.50;;;;;;5055467;28;20024;-75
2021/06/13 02:16:14;;;;;;;0.20;0.20;;;16.80;70.70;;;;;;5054222;28;20028;-76
2021/06/13 02:18:41;;;;;;;0.17;0.17;;;16.70;70.40;;;;;;5065321;28;20056;-75
2021/06/13 02:21:08;;;;;;;0.20;0.20;;;16.70;70.30;;;;;;5074360;28;20017;-76
2021/06/13 02:23:36;;;;;;;0.20;0.20;;;16.60;70.70;;;;;;5075445;28;20108;-76
2021/06/13 02:26:02;;;;;;;0.15;0.15;;;16.60;70.70;;;;;;5075374;28;20032;-76
2021/06/13 02:28:29;;;;;;;0.20;0.20;;;16.60;70.70;;;;;;5069403;28;20025;-76
2021/06/13 02:30:56;;;;;;;0.20;0.20;;;16.60;70.60;;;;;;5070622;28;20028;-76
2021/06/13 02:33:23;;;;;;;0.20;0.20;;;16.60;70.70;;;;;;5053896;28;20017;-76
2021/06/13 02:35:53;;;;;;;0.20;0.20;;;16.50;70.60;;;;;;5054878;28;20462;-76
2021/06/13 02:38:20;;;;;;;;;;;16.60;70.50;;;;;;5055585;28;20100;-76
2021/06/13 02:40:55;;;;;;;0.20;0.20;;;16.50;70.50;;;;;;5053569;28;19921;-76
2021/06/13 02:43:21;;;;;;;0.20;0.20;;;16.60;70.40;;;;;;5055065;28;20041;-76
2021/06/13 02:45:48;;;;;;;0.20;0.20;;;16.50;70.30;;;;;;5065924;28;20029;-75
2021/06/13 02:48:16;;;;;;;0.20;0.20;;;16.50;70.60;;;;;;5063662;28;20033;-76
2021/06/13 02:50:42;;;;;;;0.30;0.20;;;16.50;70.60;;;;;;5069210;28;20029;-75
2021/06/13 02:53:20;;;;;;;0.20;0.20;;;16.40;70.30;;;;;;5053667;28;20559;-76
2021/06/13 02:55:50;;;;;;;0.20;0.20;;;16.40;70.90;;;;;;5054893;28;20017;-76
2021/06/13 02:58:43;;;;;;;0.20;0.20;;;16.40;70.60;;;;;;5055203;28;20028;-76
2021/06/13 03:01:12;;;;;;;0.20;0.20;;;16.40;71.10;;;;;;5096678;28;20108;-76
2021/06/13 03:03:44;;;;;;;0.20;0.20;;;16.30;71.00;;;;;;5097739;28;20035;-75
2021/06/13 03:06:16;;;;;;;0.20;0.20;;;16.30;71.00;;;;;;5059741;28;20117;-76
2021/06/13 03:08:42;;;;;;;0.20;0.20;;;16.30;70.90;;;;;;5073298;28;20033;-75
2021/06/13 03:11:09;;;;;;;0.20;0.20;;;16.30;71.30;;;;;;5058895;28;20028;-76
2021/06/13 03:13:36;;;;;;;0.20;0.20;;;16.30;71.20;;;;;;5074593;28;20058;-75
2021/06/13 03:16:02;;;;;;;0.10;0.10;;;16.30;71.20;;;;;;5077242;28;20040;-75
2021/06/13 03:18:29;;;;;;;0.20;0.20;;;16.30;70.90;;;;;;5078766;28;20056;-76
2021/06/13 03:20:56;;;;;;;0.20;0.20;;;16.30;71.10;;;;;;5077912;28;20044;-76
2021/06/13 03:23:25;;;;;;;0.20;0.20;;;16.30;70.60;;;;;;5058644;28;20040;-76
2021/06/13 03:26:05;;;;;;;0.20;0.20;;;16.30;70.50;;;;;;5057232;28;20395;-76
2021/06/13 03:28:33;;;;;;;0.20;0.20;;;16.20;71.00;;;;;;5062613;28;20024;-76
2021/06/13 03:31:01;;;;;;;0.20;0.20;;;16.10;71.40;;;;;;5078515;28;20043;-76
2021/06/13 03:33:29;;;;;;;0.20;0.20;;;16.10;71.20;;;;;;5077215;28;20503;-76
2021/06/13 03:35:57;;;;;;;0.20;0.20;;;16.10;71.00;;;;;;5066861;28;20154;-75
2021/06/13 03:38:24;;;;;;;0.20;0.20;;;16.10;71.00;;;;;;5056919;28;20045;-76
2021/06/13 03:40:51;;;;;;;0.20;0.20;;;16.10;70.50;;;;;;5057064;28;20083;-76
2021/06/13 03:43:21;;;;;;;0.20;0.20;;;16.00;70.70;;;;;;5056896;28;20033;-76
2021/06/13 03:45:48;;;;;;;0.20;0.20;;;16.00;71.10;;;;;;5069319;28;20031;-76
2021/06/13 03:48:16;;;;;;;0.20;0.20;;;16.00;70.90;;;;;;5058180;28;20033;-76
2021/06/13 03:50:43;;;;;;;0.20;0.20;;;15.90;71.20;;;;;;5056484;28;20398;-76
2021/06/13 03:53:09;;;;;;;0.20;0.20;;;15.80;71.60;;;;;;5072399;28;20036;-76
2021/06/13 03:55:35;;;;;;;0.20;0.20;;;15.80;71.50;;;;;;5057892;28;20049;-76
2021/06/13 03:58:03;;;;;;;0.20;0.20;;;15.80;71.40;;;;;;5056587;28;20021;-76
2021/06/13 04:00:32;;;;;;;0.20;0.20;;;15.90;71.40;;;;;;5089026;28;20033;-76
2021/06/13 04:02:58;;;;;;;0.20;0.20;;;15.80;71.40;;;;;;5076636;28;20154;-76
2021/06/13 04:05:24;;;;;;;0.20;0.20;;;15.80;71.50;;;;;;5076667;28;20035;-75
2021/06/13 04:07:50;;;;;;;0.20;0.20;;;15.80;71.40;;;;;;5071973;28;20170;-76
2021/06/13 04:10:18;;;;;;;0.20;0.20;;;15.80;71.40;;;;;;5056638;28;20067;-76
2021/06/13 04:12:48;;;;;;;0.20;0.20;;;15.80;71.30;;;;;;5072698;28;20772;-76
2021/06/13 04:15:16;;;;;;;0.30;0.20;;;15.80;71.10;;;;;;5056612;28;20035;-76
2021/06/13 04:17:43;;;;;;;0.20;0.20;;;15.80;71.40;;;;;;5056358;28;20509;-76
2021/06/13 04:20:11;;;;;;;0.20;0.20;;;15.70;71.70;;;;;;5056219;28;20029;-76
2021/06/13 04:22:41;;;;;;;0.20;0.20;;;15.70;71.70;;;;;;5074296;28;20024;-76
2021/06/13 04:25:09;;;;;;;0.20;0.20;;;15.70;71.60;;;;;;5076200;28;20020;-76
2021/06/13 04:27:37;;;;;;;0.20;0.20;;;15.70;71.90;;;;;;5071411;28;20124;-76
2021/06/13 04:30:07;;;;;;;0.20;0.20;;;15.70;71.90;;;;;;5072925;28;20035;-75
2021/06/13 04:32:32;;;;;;;0.22;0.22;;;15.80;71.70;;;;;;5075182;28;20033;-76
2021/06/13 04:34:58;;;;;;;0.20;0.20;;;15.80;71.40;;;;;;5071714;28;20025;-76
2021/06/13 04:37:24;;;;;;;0.20;0.20;;;15.80;71.30;;;;;;5055903;28;20025;-76
2021/06/13 04:39:50;;;;;;;0.20;0.20;;;15.80;71.70;;;;;;5055877;28;20404;-76
2021/06/13 04:42:15;;;;;;;0.20;0.20;;;15.80;71.50;;;;;;5057499;28;20491;-76
2021/06/13 04:44:41;;;;;;;0.20;0.20;;;15.80;71.50;;;;;;5056186;28;20131;-75
2021/06/13 04:47:07;;;;;;;0.20;0.20;;;15.80;71.70;;;;;;5057034;28;20032;-76
2021/06/13 04:49:33;;;;;;;0.20;0.20;;;15.80;71.50;;;;;;5072347;28;20102;-75
2021/06/13 04:52:00;;;;;;;0.20;0.20;;;15.80;72.10;;;;;;5072332;28;20025;-76
2021/06/13 04:54:50;;;;;;;0.20;0.20;;;15.80;72.10;;;;;;5071464;28;20032;-75
2021/06/13 04:57:30;;;;;;;0.20;0.20;;;15.80;71.90;;;;;;5072582;28;20051;-76
2021/06/13 04:59:56;;;;;;;0.20;0.20;;;15.80;71.80;;;;;;5083490;28;20051;-75
2021/06/13 05:02:22;;;;;;;0.20;0.20;;;15.80;71.40;;;;;;5060301;28;20524;-76
2021/06/13 05:04:48;;;;;;;0.20;0.20;;;15.90;71.60;;;;;;5072424;28;20021;-76
2021/06/13 05:07:14;;;;;;;0.20;0.20;;;15.90;71.60;;;;;;5071077;28;20032;-76
2021/06/13 05:09:43;;;;;;;0.10;0.10;;;15.90;71.90;;;;;;5056499;28;20035;-75
2021/06/13 05:12:09;;;;;;;0.20;0.20;;;16.00;71.50;;;;;;5056892;28;20028;-76
2021/06/13 05:14:34;;;;;;;0.20;0.20;;;16.00;71.90;;;;;;5056512;28;20024;-76
2021/06/13 05:17:00;;;;;;;0.20;0.20;;;16.00;71.80;;;;;;5055134;28;20025;-76
2021/06/13 05:19:26;;;;;;;0.28;0.20;;;16.00;71.30;;;;;;5070604;28;20033;-76
2021/06/13 05:21:51;;;;;;;0.20;0.20;;;16.00;71.90;;;;;;5056662;28;20033;-76
2021/06/13 05:24:17;;;;;;;0.20;0.20;;;16.00;71.80;;;;;;5055759;28;20163;-76
2021/06/13 05:26:43;;;;;;;0.20;0.20;;;16.10;71.80;;;;;;5054865;28;20036;-76
2021/06/13 05:29:08;;;;;;;0.20;0.20;;;16.10;71.90;;;;;;5054867;28;20462;-76
2021/06/13 05:31:34;;;;;;;0.20;0.20;;;16.20;72.10;;;;;;5070963;28;20028;-76
2021/06/13 05:33:59;;;;;;;0.20;0.20;;;16.20;72.00;;;;;;5074725;28;20017;-75
2021/06/13 05:36:25;;;;;;;0.20;0.20;;;16.20;72.00;;;;;;5075079;28;20029;-76
2021/06/13 05:38:51;;;;;;;0.10;0.10;;;16.30;71.80;;;;;;5056390;28;20033;-77
2021/06/13 05:41:17;;;;;;;0.20;0.20;;;16.30;71.20;;;;;;5056317;28;20028;-76
2021/06/13 05:43:43;;;;;;;0.20;0.20;;;16.30;71.30;;;;;;5056106;28;20092;-76
2021/06/13 05:46:09;;;;;;;0.20;0.20;;;16.40;71.90;;;;;;5064935;28;20021;-75
2021/06/13 05:48:35;;;;;;;0.20;0.20;;;16.40;72.00;;;;;;5054542;28;20025;-76
2021/06/13 05:51:03;;;;;;;0.20;0.20;;;16.50;71.80;;;;;;5071046;28;20092;-76
2021/06/13 05:53:28;;;;;;;0.30;0.20;;;16.50;71.60;;;;;;5073596;28;20051;-75
2021/06/13 05:55:54;;;;;;;0.20;0.20;;;16.60;71.90;;;;;;5066115;28;20025;-76
2021/06/13 05:58:20;;;;;;;0.20;0.20;;;16.70;71.20;;;;;;5065786;28;20029;-78
2021/06/13 06:00:46;;;;;;;0.20;0.20;;;16.70;71.50;;;;;;5064095;28;20125;-76
2021/06/13 06:03:12;;;;;;;0.20;0.20;;;16.80;71.80;;;;;;5056068;28;20062;-77
2021/06/13 06:05:37;;;;;;;0.20;0.20;;;16.80;71.10;;;;;;5050915;28;20025;-77
2021/06/13 06:08:04;;;;;;;0.20;0.20;;;16.80;71.20;;;;;;5056037;28;20036;-76
2021/06/13 06:10:32;;;;;;;0.20;0.20;;;16.80;71.60;;;;;;5055972;28;20108;-76
2021/06/13 06:13:01;;;;;;;0.20;0.20;;;16.90;71.70;;;;;;5053150;28;20060;-76
2021/06/13 06:15:28;;;;;;;0.20;0.20;;;16.90;72.20;;;;;;5053317;28;20013;-76
2021/06/13 06:17:54;;;;;;;0.17;0.10;;;16.90;72.20;;;;;;5053680;28;20435;-76
2021/06/13 06:20:23;;;;;;;0.20;0.20;;;17.00;71.70;;;;;;5053802;28;20030;-76
2021/06/13 06:22:50;;;;;;;0.20;0.20;;;17.00;71.70;;;;;;5059366;28;20058;-76
2021/06/13 06:25:17;;;;;;;0.13;0.13;;;17.10;72.10;;;;;;5069540;28;20021;-76
2021/06/13 06:27:43;;;;;;;0.30;0.20;;;17.20;72.10;;;;;;5055024;28;20094;-76
2021/06/13 06:30:11;;;;;;;0.10;0.10;;;17.20;72.00;;;;;;5054770;28;20531;-77
2021/06/13 06:32:37;;;;;;;0.20;0.20;;;17.30;72.40;;;;;;5055058;28;20025;-77
2021/06/13 06:35:05;;;;;;;0.20;0.20;;;17.30;72.10;;;;;;5054013;28;20386;-74
2021/06/13 06:37:30;;;;;;;0.20;0.20;;;17.40;72.60;;;;;;5072312;28;20048;-76
2021/06/13 06:39:56;;;;;;;0.10;0.10;;;17.40;71.90;;;;;;5064355;28;20419;-76
2021/06/13 06:42:22;;;;;;;0.10;0.10;;;17.50;72.10;;;;;;5066715;28;20025;-76
2021/06/13 06:44:47;;;;;;;0.20;0.20;;;17.50;72.20;;;;;;5054639;28;20086;-78
2021/06/13 06:47:13;;;;;;;0.10;0.10;;;17.50;72.60;;;;;;5054791;28;20033;-78
2021/06/13 06:49:39;;;;;;;0.20;0.20;;;17.60;72.70;;;;;;5054722;28;20032;-77
2021/06/13 06:52:06;;;;;;;0.20;0.20;;;17.60;72.70;;;;;;5054633;28;20073;-77
2021/06/13 06:54:32;;;;;;;0.10;0.10;;;17.70;72.70;;;;;;5054491;28;20079;-77
2021/06/13 06:56:58;;;;;;;0.20;0.20;;;17.80;72.00;;;;;;5069472;28;20033;-81
2021/06/13 06:59:23;;;;;;;0.17;0.17;;;17.80;71.90;;;;;;5073783;28;20035;-78
2021/06/13 07:01:49;;;;;;;0.10;0.10;;;17.90;71.80;;;;;;5074947;28;20444;-77
2021/06/13 07:04:15;;;;;;;0.20;0.20;;;18.00;71.70;;;;;;5054483;28;20021;-80
2021/06/13 07:06:40;;;;;;;0.10;0.10;;;18.00;71.60;;;;;;5054376;28;20029;-76
2021/06/13 07:09:06;;;;;;;0.17;0.13;;;18.10;71.60;;;;;;5059119;28;20117;-79
2021/06/13 07:11:32;;;;;;;0.10;0.10;;;18.20;71.50;;;;;;5073589;28;20032;-77
2021/06/13 07:13:57;;;;;;;0.10;0.10;;;18.30;71.10;;;;;;5071002;28;20072;-76
2021/06/13 07:16:23;;;;;;;0.17;0.17;;;18.40;71.10;;;;;;5069536;28;20486;-76
2021/06/13 07:18:49;;;;;;;0.10;0.10;;;18.50;71.20;;;;;;5071177;28;20016;-76
2021/06/13 07:21:15;;;;;;;0.20;0.20;;;18.70;71.10;;;;;;5073582;28;20078;-76
2021/06/13 07:23:41;;;;;;;0.30;0.22;;;18.80;70.40;;;;;;5067837;28;20028;-76
2021/06/13 07:26:06;;;;;;;0.20;0.20;;;19.50;68.60;;;;;;5069726;28;20449;-77
2021/06/13 07:28:33;;;;;;;0.10;0.10;;;21.30;64.60;;;;;;5074259;28;20490;-77
2021/06/13 07:31:01;;;;;;;0.03;0.03;;;24.50;53.10;;;;;;5073371;28;20024;-77
2021/06/13 07:33:28;;;;;;;0.10;0.10;;;26.30;47.70;;;;;;5074572;28;20046;-78
2021/06/13 07:35:54;;;;;;;0.00;0.00;;;28.70;43.40;;;;;;5074383;28;20021;-76
2021/06/13 07:38:19;;;;;;;0.00;0.00;;;30.70;40.10;;;;;;5074655;28;20025;-75
2021/06/13 07:40:46;;;;;;;0.00;0.00;;;31.80;35.80;;;;;;5056889;28;20059;-74
2021/06/13 07:43:12;;;;;;;0.00;0.00;;;33.30;35.20;;;;;;5060114;28;20024;-74
2021/06/13 07:45:37;;;;;;;0.00;0.00;;;34.20;32.40;;;;;;5064578;28;20050;-74
2021/06/13 09:05:32;;;;;;;0.00;0.00;;;36.00;29.40;;;;;;5084110;28;20459;-76
2021/06/13 09:08:06;;;;;;;0.00;0.00;;;35.90;28.80;;;;;;5068056;28;20052;-78
2021/06/13 09:10:32;;;;;;;0.00;0.00;;;35.70;30.00;;;;;;5064556;28;20060;-79
2021/06/13 09:13:17;;;;;;;0.00;0.00;;;36.40;28.80;;;;;;5070410;28;20027;-79
2021/06/13 09:16:05;;;;;;;0.00;0.00;;;36.40;28.80;;;;;;5067665;28;20020;-75
2021/06/13 09:18:36;;;;;;;0.00;0.00;;;36.90;28.10;;;;;;5069530;28;20537;-75
2021/06/13 09:21:03;;;;;;;0.00;0.00;;;37.00;27.30;;;;;;5052839;28;20447;-75
2021/06/13 09:23:31;;;;;;;0.00;0.00;;;37.20;28.40;;;;;;5051703;28;20031;-76
2021/06/13 09:26:03;;;;;;;0.00;0.00;;;37.50;27.50;;;;;;5065667;28;20062;-75
2021/06/13 09:28:35;;;;;;;0.00;0.00;;;37.70;28.20;;;;;;5065696;28;20032;-76
2021/06/13 09:31:01;;;;;;;0.00;0.00;;;37.00;27.00;;;;;;5067954;28;20021;-76
2021/06/13 09:33:28;;;;;;;0.00;0.00;;;37.30;29.10;;;;;;5066372;28;20036;-75
2021/06/13 09:35:56;;;;;;;0.00;0.00;;;38.00;27.60;;;;;;5049959;28;20029;-76
2021/06/13 09:38:30;;;;;;;0.00;0.00;;;38.00;26.20;;;;;;5051227;28;20103;-75
2021/06/13 09:41:04;;;;;;;0.00;0.00;;;37.90;26.90;;;;;;5063920;28;20132;-81
2021/06/13 09:43:33;;;;;;;0.00;0.00;;;37.60;27.60;;;;;;5070424;28;20441;-75
2021/06/13 09:46:01;;;;;;;0.00;0.00;;;38.20;27.70;;;;;;5071552;28;20387;-75
2021/06/13 09:48:27;;;;;;;0.00;0.00;;;38.10;25.90;;;;;;5054508;28;20026;-75
2021/06/13 09:51:02;;;;;;;0.00;0.00;;;37.80;26.80;;;;;;5064981;28;20033;-75
2021/06/13 09:53:35;;;;;;;0.00;0.00;;;37.60;27.80;;;;;;5070051;28;20390;-75
2021/06/13 09:56:07;;;;;;;0.00;0.00;;;37.80;27.80;;;;;;5069991;28;20025;-76
2021/06/13 09:58:33;;;;;;;0.00;0.00;;;38.10;25.90;;;;;;5059114;28;20071;-78
2021/06/13 10:01:21;;;;;;;0.00;0.00;;;38.20;26.70;;;;;;5091425;28;20039;-83
2021/06/13 10:03:48;;;;;;;;;;;38.80;26.80;;;;;;5068184;28;20045;-86
2021/06/13 10:06:15;;;;;;;0.00;0.00;;;38.50;26.10;;;;;;5069175;28;20371;-77
2021/06/13 10:08:42;;;;;;;0.00;0.00;;;38.80;26.70;;;;;;5083077;28;20039;-75
2021/06/13 10:11:09;;;;;;;0.00;0.00;;;38.10;26.90;;;;;;5076120;28;20025;-74
2021/06/13 10:13:45;;;;;;;0.00;0.00;;;37.80;26.20;;;;;;5051188;28;20021;-75
2021/06/13 10:16:30;;;;;;;0.00;0.00;;;37.30;26.90;;;;;;5042084;28;20026;-76
2021/06/13 10:19:07;;;;;;;0.00;0.00;;;36.90;28.10;;;;;;5041960;28;20032;-75
2021/06/13 10:21:36;;;;;;;0.00;0.00;;;37.00;27.50;;;;;;5052662;28;20412;-74
2021/06/13 10:24:06;;;;;;;0.00;0.00;;;36.80;26.80;;;;;;5052990;28;20033;-74
2021/06/13 10:26:34;;;;;;;0.00;0.00;;;36.80;28.20;;;;;;5037501;28;20033;-75
2021/06/13 10:29:01;;;;;;;;;;;35.70;28.70;;;;;;5038076;28;20051;-75
2021/06/13 10:31:27;;;;;;;0.00;0.00;;;35.30;30.40;;;;;;5038384;28;19912;-74
2021/06/13 10:33:53;;;;;;;0.00;0.00;;;35.10;31.20;;;;;;5057359;28;20033;-75
2021/06/13 10:36:19;;;;;;;0.00;0.00;;;35.00;29.20;;;;;;5055688;28;20040;-77
2021/06/13 10:38:45;;;;;;;0.10;0.00;;;34.10;31.20;;;;;;5046421;28;20038;-74
2021/06/13 10:41:11;;;;;;;0.00;0.00;;;33.40;31.70;;;;;;5051669;28;20029;-75
2021/06/13 10:43:37;;;;;;;0.00;0.00;;;33.30;34.10;;;;;;5048584;28;20403;-77
2021/06/13 10:46:15;;;;;;;0.00;0.00;;;33.00;33.50;;;;;;5046867;28;20487;-75
2021/06/13 10:48:45;;;;;;;0.00;0.00;;;32.40;34.00;;;;;;5046978;28;20022;-76
2021/06/13 10:51:34;;;;;;;0.00;0.00;;;32.20;35.00;;;;;;5045105;28;20036;-84
2021/06/13 10:54:18;;;;;;;0.10;0.00;;;31.70;36.80;;;;;;5047018;28;20108;-85
2021/06/13 10:57:14;;;;;;;0.00;0.00;;;31.70;37.20;;;;;;5047084;28;20110;-80
2021/06/13 10:59:42;;;;;;;0.00;0.00;;;31.70;36.10;;;;;;5015787;28;20120;-80
2021/06/13 11:02:10;;;;;;;0.00;0.00;;;31.30;36.60;;;;;;5037364;28;20021;-77
2021/06/13 11:04:48;;;;;;;0.00;0.00;;;31.20;37.40;;;;;;5070477;28;20048;-79
2021/06/13 11:07:41;;;;;;;0.00;0.00;;;31.20;36.10;;;;;;5050234;28;20132;-79
2021/06/13 11:12:49;;;;;;;0.00;0.00;;;31.30;37.80;;;;;;5036717;28;20534;-79
2021/06/13 11:18:26;;;;;;;0.00;0.00;;;31.30;38.30;;;;;;5070537;28;20029;-79
2021/06/13 11:21:16;;;;;;;0.00;0.00;;;31.10;36.70;;;;;;5036593;28;20049;-79
2021/06/13 11:23:45;;;;;;;0.00;0.00;;;31.00;36.00;;;;;;5026355;28;20036;-82
2021/06/13 11:26:30;;;;;;;0.00;0.00;;;31.10;37.20;;;;;;5031826;28;20492;-78
2021/06/13 11:28:56;;;;;;;0.00;0.00;;;31.00;38.00;;;;;;5032320;28;20030;-81
2021/06/13 11:31:24;;;;;;;0.00;0.00;;;31.00;37.40;;;;;;5035370;28;20037;-80
2021/06/13 11:33:52;;;;;;;0.00;0.00;;;31.10;35.80;;;;;;5023173;28;20034;-83
2021/06/13 11:36:20;;;;;;;0.00;0.00;;;30.80;37.40;;;;;;5022046;28;20017;-83
2021/06/13 11:39:04;;;;;;;0.00;0.00;;;30.70;36.30;;;;;;5021981;28;20082;-86
2021/06/13 11:41:32;;;;;;;0.00;0.00;;;30.60;37.20;;;;;;5034199;28;20052;-80
2021/06/13 11:44:00;;;;;;;0.00;0.00;;;30.50;36.00;;;;;;5021032;28;20033;-84
2021/06/13 11:46:43;;;;;;;0.00;0.00;;;30.40;36.00;;;;;;5023891;28;20030;-84
2021/06/13 11:49:14;;;;;;;0.00;0.00;;;30.30;36.60;;;;;;5019942;28;20037;-83
2021/06/13 11:52:01;;;;;;;0.00;0.00;;;30.30;38.20;;;;;;5018766;28;20484;-84
2021/06/13 11:54:31;;;;;;;0.00;0.00;;;30.30;36.30;;;;;;5019006;28;20060;-83
2021/06/13 11:56:58;;;;;;;0.00;0.00;;;30.30;36.40;;;;;;5019368;28;20101;-83
2021/06/13 11:59:26;;;;;;;0.00;0.00;;;30.40;38.00;;;;;;5022139;28;20038;-83
2021/06/13 12:02:05;;;;;;;0.00;0.00;;;30.50;36.80;;;;;;5021223;28;20032;-83
2021/06/13 12:04:32;;;;;;;0.00;0.00;;;30.50;36.40;;;;;;5021549;28;20049;-83
2021/06/13 12:07:00;;;;;;;0.00;0.00;;;30.30;34.50;;;;;;5021406;28;20555;-83
2021/06/13 12:09:29;;;;;;;0.00;0.00;;;30.00;35.30;;;;;;5021462;28;20518;-82
2021/06/13 12:11:56;;;;;;;0.00;0.00;;;29.80;36.50;;;;;;5016335;28;20041;-82
2021/06/13 12:14:38;;;;;;;0.00;0.00;;;30.00;35.10;;;;;;5023514;28;20064;-82
2021/06/13 12:17:10;;;;;;;0.00;0.00;;;30.10;35.60;;;;;;5017371;28;20029;-81
2021/06/13 12:19:39;;;;;;;0.00;0.00;;;30.20;35.20;;;;;;5022882;28;20042;-84
2021/06/13 12:27:50;;;;;;;0.00;0.00;;;30.00;35.50;;;;;;5020922;28;20037;-84
2021/06/13 12:30:24;;;;;;;0.00;0.00;;;29.90;35.20;;;;;;5018389;28;20125;-80
2021/06/13 12:33:05;;;;;;;0.00;0.00;;;30.00;37.00;;;;;;5020672;28;20129;-82
2021/06/13 12:35:39;;;;;;;0.00;0.00;;;29.60;35.20;;;;;;5022264;28;20076;-80
2021/06/13 12:38:06;;;;;;;0.00;0.00;;;29.30;35.60;;;;;;5015483;28;20022;-82
2021/06/13 12:40:33;;;;;;;0.00;0.00;;;29.60;38.00;;;;;;5016359;28;20547;-81
2021/06/13 12:42:59;;;;;;;0.00;0.00;;;29.90;37.50;;;;;;5015642;28;20485;-81
2021/06/13 12:45:25;;;;;;;0.00;0.00;;;30.20;35.60;;;;;;5015656;28;20124;-81
2021/06/13 12:47:57;;;;;;;0.00;0.00;;;30.30;34.60;;;;;;5031053;28;20043;-81
2021/06/13 12:50:33;;;;;;;0.00;0.00;;;30.20;34.70;;;;;;5034189;28;20096;-82
2021/06/13 12:52:59;;;;;;;0.00;0.00;;;30.20;35.80;;;;;;5033739;28;20029;-81
2021/06/13 12:55:31;;;;;;;0.00;0.00;;;30.10;34.50;;;;;;5015543;28;20136;-81
2021/06/13 12:57:57;;;;;;;0.00;0.00;;;30.10;35.70;;;;;;5015280;28;20030;-81
2021/06/13 13:00:23;;;;;;;0.00;0.00;;;30.30;36.40;;;;;;5050790;28;20110;-80
2021/06/13 13:03:07;;;;;;;0.00;0.00;;;30.50;36.90;;;;;;5030102;28;20029;-81
2021/06/13 13:05:33;;;;;;;0.10;0.00;;;30.50;35.50;;;;;;5015145;28;20050;-81
2021/06/13 13:08:18;;;;;;;0.00;0.00;;;30.30;36.30;;;;;;5015512;28;20040;-81
2021/06/13 13:11:04;;;;;;;0.00;0.00;;;30.30;36.30;;;;;;5015518;28;20022;-81
2021/06/13 13:13:34;;;;;;;0.00;0.00;;;30.20;35.30;;;;;;5015133;28;20040;-81
2021/06/13 13:16:02;;;;;;;0.00;0.00;;;30.00;35.50;;;;;;5022451;28;20021;-80
2021/06/13 13:18:27;;;;;;;0.00;0.00;;;29.80;33.60;;;;;;5033295;28;20539;-81
2021/06/13 13:20:55;;;;;;;0.00;0.00;;;29.80;32.90;;;;;;5035058;28;20026;-81
2021/06/13 13:23:21;;;;;;;0.00;0.00;;;29.60;33.90;;;;;;5026226;28;20022;-81
2021/06/13 13:25:49;;;;;;;0.00;0.00;;;29.60;33.10;;;;;;5015142;28;20041;-80
2021/06/13 13:28:33;;;;;;;0.00;0.00;;;29.60;34.70;;;;;;5015228;28;20496;-82
2021/06/13 13:31:16;;;;;;;0.00;0.00;;;29.70;35.40;;;;;;5018693;28;20037;-81
2021/06/13 13:33:51;;;;;;;0.00;0.00;;;29.70;35.80;;;;;;5015158;28;20041;-81
2021/06/13 13:36:33;;;;;;;0.00;0.00;;;29.80;35.90;;;;;;5014857;28;20048;-81
2021/06/13 13:39:16;;;;;;;0.00;0.00;;;29.80;36.20;;;;;;5015362;28;20037;-81
2021/06/13 13:42:00;;;;;;;0.00;0.00;;;29.80;34.30;;;;;;5013969;28;20080;-82
2021/06/13 13:44:29;;;;;;;0.00;0.00;;;29.70;35.60;;;;;;5015021;28;20427;-79
2021/06/13 13:47:05;;;;;;;0.00;0.00;;;29.80;34.30;;;;;;5015160;28;20018;-80
2021/06/13 13:49:32;;;;;;;0.00;0.00;;;29.80;33.90;;;;;;5015189;28;20088;-80
2021/06/13 13:52:00;;;;;;;0.00;0.00;;;30.00;33.80;;;;;;5018283;28;20058;-80
2021/06/13 13:54:35;;;;;;;0.00;0.00;;;30.00;34.00;;;;;;5018645;28;20030;-80
2021/06/13 13:57:04;;;;;;;0.00;0.00;;;30.10;33.90;;;;;;5018842;28;20036;-79
2021/06/13 13:59:30;;;;;;;;;;;30.20;34.30;;;;;;5039355;28;20437;-80
2021/06/13 14:01:57;;;;;;;0.00;0.00;;;30.10;33.30;;;;;;5048300;28;19913;-80
2021/06/13 14:04:24;;;;;;;0.00;0.00;;;30.20;33.60;;;;;;5038227;28;20129;-80
2021/06/13 14:06:54;;;;;;;0.00;0.00;;;30.20;31.80;;;;;;5033290;28;20037;-80
2021/06/13 14:09:20;;;;;;;0.00;0.00;;;30.10;33.20;;;;;;5038726;28;20021;-80
2021/06/13 14:11:48;;;;;;;0.00;0.00;;;29.80;34.60;;;;;;5038528;28;20092;-80
2021/06/13 14:14:15;;;;;;;0.00;0.00;;;29.80;33.80;;;;;;5022217;28;20473;-80
2021/06/13 14:16:41;;;;;;;0.00;0.00;;;30.00;36.20;;;;;;5023095;28;20057;-79
2021/06/13 14:19:07;;;;;;;0.00;0.00;;;30.20;34.90;;;;;;5033776;28;20018;-81
2021/06/13 14:21:32;;;;;;;0.00;0.00;;;30.10;33.40;;;;;;5023216;28;20040;-81
2021/06/13 14:23:58;;;;;;;0.00;0.00;;;30.00;34.00;;;;;;5026084;28;20025;-76
2021/06/13 14:26:24;;;;;;;0.00;0.00;;;30.00;33.30;;;;;;5035634;28;20108;-83
2021/06/13 14:28:50;;;;;;;0.00;0.00;;;30.10;34.10;;;;;;5018295;28;20026;-82